Aeroporto :
LOGIN :

Iscrizione | Disclaimer

   EN    FR    IT 

 










Sommario :    VFR   VFR Marginale   IFR   IFR Intensivo   IFR Molto Intensivo
Visibilità : 
Base nubi : 
>= 8 km
>= 3000ft
5 / 8 km
1000 / 3000 ft
1500m / 5 km
500 / 1000 ft
800 / 1500m
200 / 500 ft
< 800m
< 200 ft
Simboli :   Temporali  Nebbia  Neve Forte  Precipitazioni Forti  Vento > 20 kt
SIGMETs :   Varie  Temporali  Ghiacco  Turbolenza  Onda orograficha  Ceneri Vulcaniche






- Altitudine del aeroporto : 353 ft
- Codice IATA : ZAG


LDZA - Zagreb Pleso

ULTIMO METAR :
  • 230700Z 25006KT CAVOK 23/19 Q1017 BECMG 04007KT

METARs OBSOLETI :
  • 230630Z 24004KT 210V270 CAVOK 23/19 Q1017 NOSIG
  • 230600Z 24004KT 200V270 CAVOK 22/19 Q1017 NOSIG
  • 230530Z 25004KT CAVOK 21/19 Q1017 NOSIG
  • 230500Z VRB02KT CAVOK 20/19 Q1017 NOSIG
  • 230430Z VRB01KT CAVOK 20/19 Q1017 NOSIG
  • 230400Z 22002KT CAVOK 19/18 Q1016 NOSIG
  • 230330Z VRB02KT CAVOK 19/18 Q1016 NOSIG
  • 230300Z 23003KT 200V270 CAVOK 19/18 Q1016 NOSIG
  • 230230Z 25002KT CAVOK 19/18 Q1016 NOSIG

TAF TAF LDZA
Valido dal 23 a 06 ore il 24 a 06 ore UTC


230525Z 2306/2406 20005KT 9999 FEW045 TX32/2314Z TN18/2403Z
BECMG 2307/2309 04006KT
PROB30
TEMPO 2321/2402 35015G30KT TSRA SCT030 FEW055CB
ATIS : +385 1 6-259-214



MetMap, La meteo Aeronautica in un colpo d'occhio ! - Copyright ORBIFLY Dicembre 2007 - Disclaimer

ORBIFLY MET'MAP TEAM :

Programmazione e sviluppo : Alexandra Zaïnal
Concezione : Baudouin d'Aumeries
Supporto tecnico e logistico : Manuel Goepfert
Aiuto : Marc-Olivier Méhu
Aiuto per la traduzione : Arnaldo La Scala




FONTI E CREDITI :

   NOAA